Time,TemperatureF,DewpointF,PressureIn,WindDirection,WindDirectionDegrees,WindSpeedMPH,WindSpeedGustMPH,Humidity,HourlyPrecipIn,Conditions,Clouds,dailyrainin,SoftwareType,DateUTC
2013-02-25 00:00:00,40.0,37.0,-100.00,ESE,106,1.0,-999.0,88,0.00,,,-99.99,,2013-02-25 08:00:00,
2013-02-25 00:22:00,40.0,37.0,-100.00,ESE,106,1.0,-999.0,88,0.00,,,-99.99,,2013-02-25 08:22:00,
2013-02-25 00:32:00,40.0,37.0,-100.00,ESE,106,1.0,-999.0,88,0.00,,,-99.99,,2013-02-25 08:32:00,
2013-02-25 00:42:00,40.0,37.0,-100.00,ESE,106,1.0,-999.0,88,0.00,,,-99.99,,2013-02-25 08:42:00,
2013-02-25 00:52:00,40.0,37.0,-100.00,ESE,106,1.0,-999.0,88,0.00,,,-99.99,,2013-02-25 08:52:00,
2013-02-25 01:00:00,39.0,36.0,-100.00,SSE,160,2.0,-999.0,91,0.00,,,-99.99,,2013-02-25 09:00:00,
2013-02-25 01:21:00,39.0,36.0,-100.00,SSE,160,2.0,-999.0,91,0.00,,,-99.99,,2013-02-25 09:21:00,
2013-02-25 01:32:00,39.0,36.0,-100.00,SSE,160,2.0,-999.0,91,0.00,,,-99.99,,2013-02-25 09:32:00,
2013-02-25 01:42:00,39.0,36.0,-100.00,SSE,160,2.0,-999.0,91,0.00,,,-99.99,,2013-02-25 09:42:00,
2013-02-25 01:52:00,39.0,36.0,-100.00,SSE,160,2.0,-999.0,91,0.00,,,-99.99,,2013-02-25 09:52:00,
2013-02-25 02:00:00,38.0,36.0,-100.00,South,173,3.0,-999.0,92,0.00,,,-99.99,,2013-02-25 10:00:00,
2013-02-25 02:21:00,38.0,36.0,-100.00,South,173,3.0,-999.0,92,0.00,,,-99.99,,2013-02-25 10:21:00,
2013-02-25 02:32:00,38.0,36.0,-100.00,South,173,3.0,-999.0,92,0.00,,,-99.99,,2013-02-25 10:32:00,
2013-02-25 02:42:00,38.0,36.0,-100.00,South,173,3.0,-999.0,92,0.00,,,-99.99,,2013-02-25 10:42:00,
2013-02-25 02:52:00,38.0,36.0,-100.00,South,173,3.0,-999.0,92,0.00,,,-99.99,,2013-02-25 10:52:00,
2013-02-25 03:00:00,37.0,35.0,-100.00,South,171,5.0,-999.0,91,0.00,,,-99.99,,2013-02-25 11:00:00,
2013-02-25 03:22:00,37.0,35.0,-100.00,South,171,5.0,-999.0,91,0.00,,,-99.99,,2013-02-25 11:22:00,
2013-02-25 03:32:00,37.0,35.0,-100.00,South,171,5.0,-999.0,91,0.00,,,-99.99,,2013-02-25 11:32:00,
2013-02-25 03:42:00,37.0,35.0,-100.00,South,171,5.0,-999.0,91,0.00,,,-99.99,,2013-02-25 11:42:00,
2013-02-25 03:52:00,37.0,35.0,-100.00,South,171,5.0,-999.0,91,0.00,,,-99.99,,2013-02-25 11:52:00,
2013-02-25 04:00:00,37.0,33.0,-100.00,NNW,348,5.0,-999.0,86,0.00,,,-99.99,,2013-02-25 12:00:00,
2013-02-25 04:22:00,37.0,33.0,-100.00,NNW,348,5.0,-999.0,86,0.00,,,-99.99,,2013-02-25 12:22:00,
2013-02-25 04:32:00,37.0,33.0,-100.00,NNW,348,5.0,-999.0,86,0.00,,,-99.99,,2013-02-25 12:32:00,
2013-02-25 04:42:00,37.0,33.0,-100.00,NNW,348,5.0,-999.0,86,0.00,,,-99.99,,2013-02-25 12:42:00,
2013-02-25 04:55:00,37.0,33.0,-100.00,NNW,348,5.0,-999.0,86,0.00,,,-99.99,,2013-02-25 12:55:00,
2013-02-25 05:00:00,37.0,34.0,-100.00,SSE,161,1.0,-999.0,87,0.00,,,-99.99,,2013-02-25 13:00:00,
2013-02-25 05:23:00,37.0,34.0,-100.00,SSE,161,1.0,-999.0,87,0.00,,,-99.99,,2013-02-25 13:23:00,
2013-02-25 05:32:00,37.0,34.0,-100.00,SSE,161,1.0,-999.0,87,0.00,,,-99.99,,2013-02-25 13:32:00,
2013-02-25 05:42:00,37.0,34.0,-100.00,SSE,161,1.0,-999.0,87,0.00,,,-99.99,,2013-02-25 13:42:00,
2013-02-25 05:52:00,37.0,34.0,-100.00,SSE,161,1.0,-999.0,87,0.00,,,-99.99,,2013-02-25 13:52:00,
2013-02-25 06:00:00,37.0,34.0,-100.00,SE,140,2.0,-999.0,89,0.00,,,-99.99,,2013-02-25 14:00:00,
2013-02-25 06:22:00,37.0,34.0,-100.00,SE,140,2.0,-999.0,89,0.00,,,-99.99,,2013-02-25 14:22:00,
2013-02-25 06:32:00,37.0,34.0,-100.00,SE,140,2.0,-999.0,89,0.00,,,-99.99,,2013-02-25 14:32:00,
2013-02-25 06:42:00,37.0,34.0,-100.00,SE,140,2.0,-999.0,89,0.00,,,-99.99,,2013-02-25 14:42:00,
2013-02-25 06:52:00,37.0,34.0,-100.00,SE,140,2.0,-999.0,89,0.00,,,-99.99,,2013-02-25 14:52:00,
2013-02-25 07:00:00,36.0,34.0,-100.00,South,179,3.0,-999.0,90,0.00,,,-99.99,,2013-02-25 15:00:00,
2013-02-25 07:22:00,36.0,34.0,-100.00,South,179,3.0,-999.0,90,0.00,,,-99.99,,2013-02-25 15:22:00,
2013-02-25 07:32:00,36.0,34.0,-100.00,South,179,3.0,-999.0,90,0.00,,,-99.99,,2013-02-25 15:32:00,
2013-02-25 07:42:00,36.0,34.0,-100.00,South,179,3.0,-999.0,90,0.00,,,-99.99,,2013-02-25 15:42:00,
2013-02-25 07:52:00,36.0,34.0,-100.00,South,179,3.0,-999.0,90,0.00,,,-99.99,,2013-02-25 15:52:00,
2013-02-25 12:00:00,55.0,33.0,-100.00,NW,315,8.0,-999.0,42,0.00,,,-99.99,,2013-02-25 20:00:00,
2013-02-25 12:22:00,55.0,33.0,-100.00,NW,315,8.0,-999.0,42,0.00,,,-99.99,,2013-02-25 20:22:00,
2013-02-25 12:32:00,55.0,33.0,-100.00,NW,315,8.0,-999.0,42,0.00,,,-99.99,,2013-02-25 20:32:00,
2013-02-25 12:42:00,55.0,33.0,-100.00,NW,315,8.0,-999.0,42,0.00,,,-99.99,,2013-02-25 20:42:00,
2013-02-25 12:52:00,55.0,33.0,-100.00,NW,315,8.0,-999.0,42,0.00,,,-99.99,,2013-02-25 20:52:00,
2013-02-25 13:00:00,60.0,30.0,-100.00,West,265,2.0,-999.0,33,0.00,,,-99.99,,2013-02-25 21:00:00,
2013-02-25 13:22:00,60.0,30.0,-100.00,West,265,2.0,-999.0,33,0.00,,,-99.99,,2013-02-25 21:22:00,
2013-02-25 13:32:00,60.0,30.0,-100.00,West,265,2.0,-999.0,33,0.00,,,-99.99,,2013-02-25 21:32:00,
2013-02-25 13:42:00,60.0,30.0,-100.00,West,265,2.0,-999.0,33,0.00,,,-99.99,,2013-02-25 21:42:00,
2013-02-25 13:52:00,60.0,30.0,-100.00,West,265,2.0,-999.0,33,0.00,,,-99.99,,2013-02-25 21:52:00,
2013-02-25 14:00:00,62.0,23.0,-100.00,North,350,14.0,-999.0,22,0.00,,,-99.99,,2013-02-25 22:00:00,
2013-02-25 14:21:00,62.0,23.0,-100.00,North,350,14.0,-999.0,22,0.00,,,-99.99,,2013-02-25 22:21:00,
2013-02-25 14:32:00,62.0,23.0,-100.00,North,350,14.0,-999.0,22,0.00,,,-99.99,,2013-02-25 22:32:00,
2013-02-25 14:42:00,62.0,23.0,-100.00,North,350,14.0,-999.0,22,0.00,,,-99.99,,2013-02-25 22:42:00,
2013-02-25 14:52:00,62.0,23.0,-100.00,North,350,14.0,-999.0,22,0.00,,,-99.99,,2013-02-25 22:52:00,
2013-02-25 15:00:00,63.0,27.0,-100.00,SSW,202,3.0,-999.0,25,0.00,,,-99.99,,2013-02-25 23:00:00,
2013-02-25 15:22:00,63.0,27.0,-100.00,SSW,202,3.0,-999.0,25,0.00,,,-99.99,,2013-02-25 23:22:00,
2013-02-25 15:32:00,63.0,27.0,-100.00,SSW,202,3.0,-999.0,25,0.00,,,-99.99,,2013-02-25 23:32:00,
2013-02-25 15:42:00,63.0,27.0,-100.00,SSW,202,3.0,-999.0,25,0.00,,,-99.99,,2013-02-25 23:42:00,
2013-02-25 15:52:00,63.0,27.0,-100.00,SSW,202,3.0,-999.0,25,0.00,,,-99.99,,2013-02-25 23:52:00,
2013-02-25 16:00:00,63.0,22.0,-100.00,North,4,1.0,-999.0,20,0.00,,,-99.99,,2013-02-26 00:00:00,
2013-02-25 16:22:00,63.0,22.0,-100.00,North,4,1.0,-999.0,20,0.00,,,-99.99,,2013-02-26 00:22:00,
2013-02-25 16:32:00,63.0,22.0,-100.00,North,4,1.0,-999.0,20,0.00,,,-99.99,,2013-02-26 00:32:00,
2013-02-25 16:42:00,63.0,22.0,-100.00,North,4,1.0,-999.0,20,0.00,,,-99.99,,2013-02-26 00:42:00,
2013-02-25 16:52:00,63.0,22.0,-100.00,North,4,1.0,-999.0,20,0.00,,,-99.99,,2013-02-26 00:52:00,
2013-02-25 17:00:00,62.0,33.0,-100.00,North,7,1.0,-999.0,33,0.00,,,-99.99,,2013-02-26 01:00:00,
2013-02-25 17:21:00,62.0,33.0,-100.00,North,7,1.0,-999.0,33,0.00,,,-99.99,,2013-02-26 01:21:00,
2013-02-25 17:32:00,62.0,33.0,-100.00,North,7,1.0,-999.0,33,0.00,,,-99.99,,2013-02-26 01:32:00,
2013-02-25 17:42:00,62.0,33.0,-100.00,North,7,1.0,-999.0,33,0.00,,,-99.99,,2013-02-26 01:42:00,
2013-02-25 17:52:00,62.0,33.0,-100.00,North,7,1.0,-999.0,33,0.00,,,-99.99,,2013-02-26 01:52:00,
2013-02-25 18:00:00,55.0,37.0,-100.00,NW,326,5.0,-999.0,50,0.00,,,-99.99,,2013-02-26 02:00:00,
2013-02-25 18:22:00,55.0,37.0,-100.00,NW,326,5.0,-999.0,50,0.00,,,-99.99,,2013-02-26 02:22:00,
2013-02-25 18:32:00,55.0,37.0,-100.00,NW,326,5.0,-999.0,50,0.00,,,-99.99,,2013-02-26 02:32:00,
2013-02-25 18:42:00,55.0,37.0,-100.00,NW,326,5.0,-999.0,50,0.00,,,-99.99,,2013-02-26 02:42:00,
2013-02-25 18:52:00,55.0,37.0,-100.00,NW,326,5.0,-999.0,50,0.00,,,-99.99,,2013-02-26 02:52:00,
2013-02-25 19:00:00,52.0,32.0,-100.00,North,352,2.0,-999.0,45,0.00,,,-99.99,,2013-02-26 03:00:00,
2013-02-25 19:22:00,52.0,32.0,-100.00,North,352,2.0,-999.0,45,0.00,,,-99.99,,2013-02-26 03:22:00,
2013-02-25 19:32:00,52.0,32.0,-100.00,North,352,2.0,-999.0,45,0.00,,,-99.99,,2013-02-26 03:32:00,
2013-02-25 19:42:00,52.0,32.0,-100.00,North,352,2.0,-999.0,45,0.00,,,-99.99,,2013-02-26 03:42:00,
2013-02-25 19:52:00,52.0,32.0,-100.00,North,352,2.0,-999.0,45,0.00,,,-99.99,,2013-02-26 03:52:00,
2013-02-25 20:00:00,49.0,32.0,-100.00,NW,323,5.0,-999.0,52,0.00,,,-99.99,,2013-02-26 04:00:00,
2013-02-25 20:22:00,49.0,32.0,-100.00,NW,323,5.0,-999.0,52,0.00,,,-99.99,,2013-02-26 04:22:00,
2013-02-25 20:32:00,49.0,32.0,-100.00,NW,323,5.0,-999.0,52,0.00,,,-99.99,,2013-02-26 04:32:00,
2013-02-25 20:42:00,49.0,32.0,-100.00,NW,323,5.0,-999.0,52,0.00,,,-99.99,,2013-02-26 04:42:00,
2013-02-25 20:52:00,49.0,32.0,-100.00,NW,323,5.0,-999.0,52,0.00,,,-99.99,,2013-02-26 04:52:00,
2013-02-25 21:00:00,46.0,32.0,-100.00,North,357,2.0,-999.0,58,0.00,,,-99.99,,2013-02-26 05:00:00,
2013-02-25 21:22:00,46.0,32.0,-100.00,North,357,2.0,-999.0,58,0.00,,,-99.99,,2013-02-26 05:22:00,
2013-02-25 21:32:00,46.0,32.0,-100.00,North,357,2.0,-999.0,58,0.00,,,-99.99,,2013-02-26 05:32:00,
2013-02-25 21:43:00,46.0,32.0,-100.00,North,357,2.0,-999.0,58,0.00,,,-99.99,,2013-02-26 05:43:00,
2013-02-25 21:52:00,46.0,32.0,-100.00,North,357,2.0,-999.0,58,0.00,,,-99.99,,2013-02-26 05:52:00,
2013-02-25 22:00:00,43.0,32.0,-100.00,NNE,26,1.0,-999.0,64,0.00,,,-99.99,,2013-02-26 06:00:00,
2013-02-25 22:22:00,43.0,32.0,-100.00,NNE,26,1.0,-999.0,64,0.00,,,-99.99,,2013-02-26 06:22:00,
2013-02-25 22:32:00,43.0,32.0,-100.00,NNE,26,1.0,-999.0,64,0.00,,,-99.99,,2013-02-26 06:32:00,
2013-02-25 22:42:00,43.0,32.0,-100.00,NNE,26,1.0,-999.0,64,0.00,,,-99.99,,2013-02-26 06:42:00,
2013-02-25 22:52:00,43.0,32.0,-100.00,NNE,26,1.0,-999.0,64,0.00,,,-99.99,,2013-02-26 06:52:00,
2013-02-25 23:00:00,41.0,33.0,-100.00,ESE,107,2.0,-999.0,72,0.00,,,-99.99,,2013-02-26 07:00:00,
2013-02-25 23:22:00,41.0,33.0,-100.00,ESE,107,2.0,-999.0,72,0.00,,,-99.99,,2013-02-26 07:22:00,
2013-02-25 23:32:00,41.0,33.0,-100.00,ESE,107,2.0,-999.0,72,0.00,,,-99.99,,2013-02-26 07:32:00,
2013-02-25 23:42:00,41.0,33.0,-100.00,ESE,107,2.0,-999.0,72,0.00,,,-99.99,,2013-02-26 07:42:00,
2013-02-25 23:52:00,41.0,33.0,-100.00,ESE,107,2.0,-999.0,72,0.00,,,-99.99,,2013-02-26 07:52:00,